createdAt,value
2023-01-10T00:00:55.868Z,16.80
2023-01-10T00:03:25.303Z,18.50
2023-01-10T00:05:54.604Z,18.27
2023-01-10T00:08:23.917Z,18.50
2023-01-10T00:10:53.170Z,17.87
2023-01-10T00:13:24.205Z,17.47
2023-01-10T00:15:53.763Z,17.67
2023-01-10T00:18:24.915Z,17.00
2023-01-10T00:20:55.449Z,18.10
2023-01-10T00:23:24.884Z,17.80
2023-01-10T00:25:53.957Z,17.27
2023-01-10T00:28:24.176Z,16.90
2023-01-10T00:31:01.442Z,17.47
2023-01-10T00:33:33.350Z,17.77
2023-01-10T00:36:03.533Z,18.23
2023-01-10T00:38:33.517Z,19.13
2023-01-10T00:41:02.981Z,18.77
2023-01-10T00:43:49.355Z,19.10
2023-01-10T00:46:18.498Z,17.07
2023-01-10T00:48:49.191Z,18.67
2023-01-10T00:51:18.479Z,18.00
2023-01-10T00:53:47.884Z,19.07
2023-01-10T00:56:17.412Z,19.73
2023-01-10T00:58:46.379Z,18.63
2023-01-10T01:01:15.693Z,18.63
2023-01-10T01:03:45.039Z,17.10
2023-01-10T01:06:15.619Z,18.27
2023-01-10T01:08:44.839Z,18.27
2023-01-10T01:11:14.210Z,17.47
2023-01-10T01:13:43.424Z,18.30
2023-01-10T01:16:12.757Z,15.40
2023-01-10T01:18:42.377Z,16.80
2023-01-10T01:21:11.453Z,18.33
2023-01-10T01:23:42.773Z,17.83
2023-01-10T01:26:12.756Z,16.43
2023-01-10T01:28:41.994Z,18.90
2023-01-10T01:31:11.493Z,18.93
2023-01-10T01:33:41.004Z,19.00
2023-01-10T01:36:11.482Z,19.60
2023-01-10T01:38:42.637Z,18.63
2023-01-10T01:41:25.847Z,18.67
2023-01-10T01:44:04.204Z,18.87
2023-01-10T01:46:35.970Z,18.47
2023-01-10T01:49:07.813Z,20.07
2023-01-10T01:51:37.488Z,18.43
2023-01-10T01:54:12.456Z,18.00
2023-01-10T01:56:47.114Z,16.77
2023-01-10T01:59:21.377Z,16.47
2023-01-10T02:01:55.402Z,17.70
2023-01-10T02:04:29.432Z,16.50
2023-01-10T02:07:00.429Z,15.50
2023-01-10T02:09:36.383Z,15.07
2023-01-10T02:12:05.460Z,14.77
2023-01-10T02:14:36.412Z,13.30
2023-01-10T02:17:05.576Z,13.93
2023-01-10T02:19:47.605Z,14.13
2023-01-10T02:22:59.208Z,13.33
2023-01-10T02:26:19.975Z,13.10
2023-01-10T02:29:30.760Z,13.20
2023-01-10T02:32:16.571Z,11.97
2023-01-10T02:34:58.789Z,12.20
2023-01-10T02:37:38.748Z,13.17
2023-01-10T02:40:12.828Z,12.83
2023-01-10T02:42:46.839Z,12.17
2023-01-10T02:45:20.564Z,11.77
2023-01-10T02:47:51.003Z,12.33
2023-01-10T02:50:32.188Z,12.07
2023-01-10T02:53:06.583Z,11.87
2023-01-10T02:55:57.634Z,12.87
2023-01-10T02:58:42.362Z,11.53
2023-01-10T03:01:18.989Z,11.80
2023-01-10T03:03:55.831Z,11.13
2023-01-10T03:06:33.594Z,12.07
2023-01-10T03:09:10.080Z,11.57
2023-01-10T03:11:42.550Z,12.70
2023-01-10T03:14:17.863Z,11.60
2023-01-10T03:16:54.153Z,10.33
2023-01-10T03:19:26.865Z,11.83
2023-01-10T03:21:59.647Z,11.87
2023-01-10T03:24:34.439Z,11.10
2023-01-10T03:27:09.141Z,11.60
2023-01-10T03:29:45.173Z,11.40
2023-01-10T03:32:17.184Z,10.63
2023-01-10T03:34:48.278Z,11.20
2023-01-10T03:37:23.160Z,11.20
2023-01-10T03:39:59.705Z,10.70
2023-01-10T03:42:58.507Z,10.23
2023-01-10T03:45:30.650Z,11.00
2023-01-10T03:48:03.532Z,11.03
2023-01-10T03:50:35.819Z,10.53
2023-01-10T03:53:05.486Z,9.97
2023-01-10T03:55:35.474Z,9.93
2023-01-10T03:58:05.061Z,9.30
2023-01-10T04:00:34.093Z,9.60
2023-01-10T04:03:03.876Z,8.43
2023-01-10T04:05:34.651Z,7.47
2023-01-10T04:08:03.853Z,7.50
2023-01-10T04:10:32.896Z,7.20
2023-01-10T04:13:03.059Z,7.37
2023-01-10T04:15:32.223Z,5.37
2023-01-10T04:18:01.297Z,5.30
2023-01-10T04:20:30.531Z,6.07
2023-01-10T04:23:01.296Z,5.67
2023-01-10T04:25:30.425Z,6.23
2023-01-10T04:27:59.669Z,5.23
2023-01-10T04:30:28.776Z,6.33
2023-01-10T04:32:57.952Z,5.63
2023-01-10T04:35:27.253Z,5.73
2023-01-10T04:37:56.849Z,5.63
2023-01-10T04:40:27.780Z,5.50
2023-01-10T04:42:57.008Z,5.30
2023-01-10T04:45:26.346Z,4.90
2023-01-10T04:47:56.697Z,5.83
2023-01-10T04:50:25.563Z,5.73
2023-01-10T04:52:55.035Z,5.30
2023-01-10T04:55:24.279Z,5.90
2023-01-10T04:57:55.078Z,4.67
2023-01-10T05:00:24.317Z,5.07
2023-01-10T05:02:57.864Z,5.33
2023-01-10T05:05:28.868Z,5.57
2023-01-10T05:07:58.363Z,4.93
2023-01-10T05:10:27.911Z,4.90
2023-01-10T05:12:58.837Z,4.77
2023-01-10T05:15:28.167Z,5.17
2023-01-10T05:18:00.090Z,4.20
2023-01-10T05:20:29.669Z,5.00
2023-01-10T05:22:59.106Z,4.87
2023-01-10T05:25:28.105Z,4.87
2023-01-10T05:27:58.654Z,4.90
2023-01-10T05:30:27.950Z,4.10
2023-01-10T05:32:57.231Z,4.57
2023-01-10T05:35:26.678Z,4.40
2023-01-10T05:37:55.699Z,4.00
2023-01-10T05:40:24.811Z,4.47
2023-01-10T05:42:54.038Z,4.00
2023-01-10T05:45:24.482Z,3.70
2023-01-10T05:47:53.631Z,4.40
2023-01-10T05:50:22.792Z,4.00
2023-01-10T05:52:51.632Z,3.80
2023-01-10T05:55:20.583Z,3.87
2023-01-10T05:57:49.825Z,3.30
2023-01-10T06:00:20.750Z,3.60
2023-01-10T06:02:51.267Z,3.90
2023-01-10T06:05:20.379Z,3.77
2023-01-10T06:07:49.670Z,3.97
2023-01-10T06:10:19.151Z,3.30
2023-01-10T06:12:49.933Z,3.93
2023-01-10T06:15:19.377Z,3.73
2023-01-10T06:17:48.874Z,4.13
2023-01-10T06:20:19.823Z,3.57
2023-01-10T06:22:49.271Z,4.10
2023-01-10T06:25:19.010Z,3.50
2023-01-10T06:27:48.136Z,3.87
2023-01-10T06:30:17.613Z,3.83
2023-01-10T06:32:46.760Z,2.90
2023-01-10T06:35:17.757Z,4.13
2023-01-10T06:37:50.620Z,3.57
2023-01-10T06:40:19.876Z,4.37
2023-01-10T06:42:50.001Z,4.17
2023-01-10T06:45:19.155Z,3.77
2023-01-10T06:47:48.469Z,3.80
2023-01-10T06:50:17.733Z,3.80
2023-01-10T06:52:47.743Z,3.83
2023-01-10T06:55:18.197Z,3.63
2023-01-10T06:57:51.114Z,3.70
2023-01-10T07:00:22.175Z,3.50
2023-01-10T07:02:51.614Z,3.50
2023-01-10T07:05:20.777Z,3.47
2023-01-10T07:07:51.626Z,3.17
2023-01-10T07:10:20.844Z,3.30
2023-01-10T07:12:50.289Z,3.60
2023-01-10T07:15:19.664Z,4.10
2023-01-10T07:17:49.548Z,3.20
2023-01-10T07:20:19.678Z,3.73
2023-01-10T07:22:56.532Z,3.47
2023-01-10T07:25:26.322Z,4.27
2023-01-10T07:27:57.028Z,3.27
2023-01-10T07:30:27.088Z,4.03
2023-01-10T07:32:57.061Z,3.57
2023-01-10T07:35:26.792Z,3.80
2023-01-10T07:37:59.940Z,3.77
2023-01-10T07:40:29.358Z,4.10
2023-01-10T07:42:59.643Z,4.00
2023-01-10T07:45:30.466Z,3.60
2023-01-10T07:48:00.056Z,3.80
2023-01-10T07:50:31.194Z,4.10
2023-01-10T07:53:03.892Z,3.80
2023-01-10T07:55:35.553Z,4.10
2023-01-10T07:58:04.682Z,4.17
2023-01-10T08:00:33.537Z,3.50
2023-01-10T08:03:03.459Z,3.87
2023-01-10T08:05:32.990Z,4.00
2023-01-10T08:08:07.555Z,4.13
2023-01-10T08:10:38.115Z,4.07
2023-01-10T08:13:18.542Z,4.57
2023-01-10T08:15:50.595Z,4.13
2023-01-10T08:18:19.996Z,3.93
2023-01-10T08:20:51.025Z,4.20
2023-01-10T08:23:22.511Z,3.57
2023-01-10T08:25:52.740Z,3.43
2023-01-10T08:28:22.172Z,4.07
2023-01-10T08:30:55.816Z,4.20
2023-01-10T08:33:27.826Z,4.33
2023-01-10T08:35:57.293Z,4.30
2023-01-10T08:38:27.839Z,4.80
2023-01-10T08:40:58.804Z,5.03
2023-01-10T08:43:27.934Z,4.53
2023-01-10T08:45:57.295Z,4.37
2023-01-10T08:48:26.835Z,4.63
2023-01-10T08:50:56.088Z,4.23
2023-01-10T08:53:27.427Z,4.83
2023-01-10T08:55:57.948Z,4.27
2023-01-10T08:58:27.288Z,4.23
2023-01-10T09:00:56.546Z,3.87
2023-01-10T09:03:28.265Z,4.80
2023-01-10T09:05:57.668Z,4.37
2023-01-10T09:08:27.085Z,3.97
2023-01-10T09:11:00.545Z,3.83
2023-01-10T09:13:29.881Z,4.03
2023-01-10T09:15:59.212Z,4.27
2023-01-10T09:18:28.967Z,4.50
2023-01-10T09:20:58.214Z,4.17
2023-01-10T09:23:27.459Z,4.00
2023-01-10T09:25:58.566Z,4.37
2023-01-10T09:28:27.977Z,4.10
2023-01-10T09:30:57.517Z,4.30
2023-01-10T09:33:32.291Z,3.90
2023-01-10T09:36:16.169Z,4.50
2023-01-10T09:38:45.990Z,3.90
2023-01-10T09:41:50.622Z,3.97
2023-01-10T09:44:27.050Z,4.07
2023-01-10T09:47:14.190Z,4.03
2023-01-10T09:50:02.306Z,4.00
2023-01-10T09:52:34.889Z,3.47
2023-01-10T09:55:17.757Z,3.50
2023-01-10T09:57:48.080Z,3.83
2023-01-10T10:00:24.791Z,3.70
2023-01-10T10:02:55.766Z,3.77
2023-01-10T10:05:27.687Z,3.77
2023-01-10T10:07:59.751Z,3.87
2023-01-10T10:10:36.985Z,3.50
2023-01-10T10:13:14.020Z,2.90
2023-01-10T10:15:55.214Z,3.83
2023-01-10T10:18:34.025Z,3.53
2023-01-10T10:21:09.894Z,3.70
2023-01-10T10:23:52.180Z,3.23
2023-01-10T10:26:31.379Z,3.60
2023-01-10T10:29:27.538Z,3.43
2023-01-10T10:32:32.235Z,3.40
2023-01-10T10:35:06.034Z,3.93
2023-01-10T10:37:40.593Z,4.00
2023-01-10T10:40:19.885Z,3.57
2023-01-10T10:42:51.602Z,4.30
2023-01-10T10:45:26.395Z,3.70
2023-01-10T10:48:02.880Z,4.50
2023-01-10T10:50:36.917Z,3.97
2023-01-10T10:53:06.939Z,4.00
2023-01-10T10:55:38.655Z,4.53
2023-01-10T10:58:10.738Z,4.33
2023-01-10T11:00:39.797Z,5.17
2023-01-10T11:03:21.695Z,4.17
2023-01-10T11:05:52.249Z,4.17
2023-01-10T11:08:22.835Z,4.20
2023-01-10T11:10:55.952Z,4.23
2023-01-10T11:13:37.477Z,4.20
2023-01-10T11:16:08.074Z,4.03
2023-01-10T11:18:39.055Z,4.10
2023-01-10T11:21:14.210Z,3.90
2023-01-10T11:23:51.471Z,4.23
2023-01-10T11:26:28.496Z,4.60
2023-01-10T11:29:08.840Z,4.50
2023-01-10T11:31:39.908Z,3.97
2023-01-10T11:34:21.322Z,4.40
2023-01-10T11:37:01.923Z,4.70
2023-01-10T11:39:32.571Z,3.93
2023-01-10T11:42:30.533Z,4.40
2023-01-10T11:45:23.922Z,4.60
2023-01-10T11:47:56.277Z,3.97
2023-01-10T11:50:27.223Z,3.60
2023-01-10T11:52:59.455Z,3.90
2023-01-10T11:55:30.812Z,4.30
2023-01-10T11:58:03.559Z,3.93
2023-01-10T12:00:40.045Z,4.03
2023-01-10T12:03:32.725Z,4.33
2023-01-10T12:06:08.749Z,4.37
2023-01-10T12:08:42.740Z,4.33
2023-01-10T12:11:28.713Z,3.50
2023-01-10T12:13:59.323Z,4.10
2023-01-10T12:16:30.622Z,4.10
2023-01-10T12:19:02.038Z,4.40
2023-01-10T12:21:37.768Z,3.77
2023-01-10T12:24:16.906Z,3.70
2023-01-10T12:26:47.809Z,4.07
2023-01-10T12:29:21.588Z,3.27
2023-01-10T12:31:51.413Z,4.07
2023-01-10T12:34:23.777Z,3.60
2023-01-10T12:37:03.064Z,4.03
2023-01-10T12:39:36.968Z,4.57
2023-01-10T12:42:37.025Z,4.10
2023-01-10T12:45:12.034Z,4.37
2023-01-10T12:47:58.873Z,5.07
2023-01-10T12:50:32.654Z,4.67
2023-01-10T12:53:06.762Z,3.90
2023-01-10T12:55:42.811Z,4.17
2023-01-10T12:58:22.496Z,4.27
2023-01-10T13:00:55.462Z,3.83
2023-01-10T13:03:32.477Z,3.63
2023-01-10T13:06:04.407Z,4.70
2023-01-10T13:08:36.450Z,4.07
2023-01-10T13:11:32.101Z,3.53
2023-01-10T13:14:04.449Z,3.93
2023-01-10T13:16:42.913Z,3.93
2023-01-10T13:19:29.679Z,4.00
2023-01-10T13:22:20.833Z,4.40
2023-01-10T13:25:05.407Z,4.40
2023-01-10T13:27:37.543Z,4.37
2023-01-10T13:30:07.763Z,3.93
2023-01-10T13:32:39.206Z,4.13
2023-01-10T13:35:19.887Z,3.83
2023-01-10T13:37:55.101Z,3.30
2023-01-10T13:40:30.682Z,3.63
2023-01-10T13:43:53.660Z,3.70
2023-01-10T13:46:45.418Z,3.53
2023-01-10T13:49:30.292Z,3.07
2023-01-10T13:52:41.256Z,3.57
2023-01-10T13:55:57.404Z,3.27
2023-01-10T13:59:07.894Z,3.40
2023-01-10T14:01:56.753Z,3.60
2023-01-10T14:04:29.770Z,3.73
2023-01-10T14:07:00.669Z,4.37
2023-01-10T14:09:45.124Z,4.07
2023-01-10T14:12:26.928Z,4.70
2023-01-10T14:15:00.512Z,4.67
2023-01-10T14:17:31.984Z,5.20
2023-01-10T14:20:16.186Z,4.57
2023-01-10T14:23:00.063Z,4.97
2023-01-10T14:25:30.666Z,4.83
2023-01-10T14:28:02.674Z,4.67
2023-01-10T14:30:34.399Z,5.27
2023-01-10T14:33:08.799Z,5.80
2023-01-10T14:35:47.756Z,5.27
2023-01-10T14:38:22.927Z,6.10
2023-01-10T14:40:54.326Z,6.43
2023-01-10T14:43:28.033Z,6.50
2023-01-10T14:46:03.565Z,6.30
2023-01-10T14:48:35.090Z,7.07
2023-01-10T14:51:24.853Z,6.07
2023-01-10T14:53:59.090Z,6.63
2023-01-10T14:56:29.860Z,5.60
2023-01-10T14:58:59.350Z,5.03
2023-01-10T15:01:29.768Z,6.03
2023-01-10T15:03:59.801Z,5.57
2023-01-10T15:06:30.379Z,5.57
2023-01-10T15:09:01.865Z,6.20
2023-01-10T15:11:33.808Z,5.90
2023-01-10T15:14:08.245Z,5.20
2023-01-10T15:16:39.121Z,3.73
2023-01-10T15:19:08.278Z,1.83
2023-01-10T15:21:44.259Z,2.00
2023-01-10T15:24:32.829Z,2.00
2023-01-10T15:27:04.176Z,3.10
2023-01-10T15:29:35.372Z,3.00
2023-01-10T15:32:11.863Z,3.40
2023-01-10T15:34:43.094Z,3.80
2023-01-10T15:37:22.579Z,4.83
2023-01-10T15:39:52.056Z,5.63
2023-01-10T15:42:23.198Z,4.70
2023-01-10T15:44:56.832Z,5.03
2023-01-10T15:47:49.011Z,5.47
2023-01-10T15:50:28.950Z,5.77
2023-01-10T15:53:01.766Z,6.27
2023-01-10T15:55:39.374Z,4.90
2023-01-10T15:58:19.630Z,5.10
2023-01-10T16:00:50.018Z,6.00
2023-01-10T16:03:31.380Z,4.97
2023-01-10T16:06:02.375Z,5.53
2023-01-10T16:08:35.780Z,5.70
2023-01-10T16:11:08.627Z,6.40
2023-01-10T16:13:37.822Z,6.70
2023-01-10T16:16:17.142Z,6.33
2023-01-10T16:18:46.617Z,7.07
2023-01-10T16:21:16.676Z,6.77
2023-01-10T16:23:47.720Z,7.37
2023-01-10T16:26:17.181Z,7.87
2023-01-10T16:28:46.140Z,8.33
2023-01-10T16:31:16.126Z,9.20
2023-01-10T16:33:46.360Z,9.17
2023-01-10T16:36:21.294Z,8.70
2023-01-10T16:38:52.255Z,9.20
2023-01-10T16:41:39.184Z,10.10
2023-01-10T16:44:08.419Z,9.90
2023-01-10T16:46:38.263Z,10.40
2023-01-10T16:49:08.496Z,18.47
2023-01-10T16:51:41.247Z,27.33
2023-01-10T16:54:16.509Z,39.57
2023-01-10T16:56:46.095Z,18.27
2023-01-10T16:59:16.628Z,13.73
2023-01-10T17:01:49.123Z,12.77
2023-01-10T17:04:23.384Z,11.87
2023-01-10T17:06:52.897Z,13.10
2023-01-10T17:09:26.982Z,12.03
2023-01-10T17:12:02.895Z,11.07
2023-01-10T17:14:34.540Z,11.57
2023-01-10T17:17:04.264Z,11.57
2023-01-10T17:19:33.271Z,11.80
2023-01-10T17:22:03.234Z,13.97
2023-01-10T17:24:34.821Z,13.20
2023-01-10T17:27:04.681Z,12.67
2023-01-10T17:29:35.838Z,12.57
2023-01-10T17:32:06.058Z,13.30
2023-01-10T17:34:38.253Z,14.23
2023-01-10T17:37:08.378Z,12.73
2023-01-10T17:39:39.796Z,14.37
2023-01-10T17:42:09.707Z,14.03
2023-01-10T17:44:39.182Z,14.53
2023-01-10T17:47:10.768Z,13.43
2023-01-10T17:49:42.350Z,14.53
2023-01-10T17:52:11.964Z,13.30
2023-01-10T17:54:42.545Z,13.90
2023-01-10T17:57:12.565Z,15.87
2023-01-10T17:59:41.626Z,14.10
2023-01-10T18:02:18.363Z,13.27
2023-01-10T18:04:47.901Z,12.67
2023-01-10T18:07:17.476Z,11.63
2023-01-10T18:09:48.418Z,10.50
2023-01-10T18:12:18.131Z,10.77
2023-01-10T18:14:47.512Z,10.70
2023-01-10T18:17:18.645Z,10.90
2023-01-10T18:19:48.719Z,11.00
2023-01-10T18:22:35.521Z,13.07
2023-01-10T18:25:07.531Z,14.47
2023-01-10T18:27:37.264Z,15.23
2023-01-10T18:30:10.020Z,14.10
2023-01-10T18:32:40.097Z,13.57
2023-01-10T18:35:10.688Z,12.40
2023-01-10T18:37:40.461Z,10.93
2023-01-10T18:40:14.144Z,9.40
2023-01-10T18:42:44.182Z,8.93
2023-01-10T18:45:14.472Z,8.40
2023-01-10T18:47:46.689Z,8.40
2023-01-10T18:50:16.137Z,8.70
2023-01-10T18:52:45.464Z,8.63
2023-01-10T18:55:19.432Z,8.30
2023-01-10T18:57:49.575Z,7.60
2023-01-10T19:00:19.772Z,7.60
2023-01-10T19:02:49.635Z,7.60
2023-01-10T19:05:19.152Z,6.50
2023-01-10T19:07:48.220Z,6.53
2023-01-10T19:10:19.502Z,6.87
2023-01-10T19:12:48.577Z,7.60
2023-01-10T19:15:18.143Z,8.00
2023-01-10T19:17:49.206Z,8.33
2023-01-10T19:20:18.999Z,8.20
2023-01-10T19:22:48.624Z,9.10
2023-01-10T19:25:19.876Z,8.40
2023-01-10T19:27:48.998Z,8.03
2023-01-10T19:30:19.977Z,8.70
2023-01-10T19:32:49.905Z,9.70
2023-01-10T19:35:19.466Z,9.80
2023-01-10T19:37:49.321Z,11.20
2023-01-10T19:40:20.884Z,10.80
2023-01-10T19:42:50.293Z,10.67
2023-01-10T19:45:20.931Z,10.47
2023-01-10T19:47:53.687Z,9.90
2023-01-10T19:50:22.889Z,9.23
2023-01-10T19:52:52.246Z,8.23
2023-01-10T19:55:24.217Z,7.63
2023-01-10T19:58:07.559Z,8.23
2023-01-10T20:00:37.027Z,8.13
2023-01-10T20:03:08.482Z,8.37
2023-01-10T20:05:38.467Z,9.53
2023-01-10T20:08:09.992Z,10.03
2023-01-10T20:10:41.239Z,10.00
2023-01-10T20:13:10.473Z,8.67
2023-01-10T20:15:40.224Z,7.97
2023-01-10T20:18:09.598Z,7.43
2023-01-10T20:20:41.326Z,7.80
2023-01-10T20:23:12.657Z,9.33
2023-01-10T20:25:43.502Z,7.90
2023-01-10T20:28:13.077Z,8.20
2023-01-10T20:30:42.233Z,9.80
2023-01-10T20:33:11.466Z,8.20
2023-01-10T20:35:41.035Z,8.10
2023-01-10T20:38:10.103Z,8.10
2023-01-10T20:40:44.178Z,8.30
2023-01-10T20:43:15.902Z,8.13
2023-01-10T20:45:47.357Z,7.50
2023-01-10T20:48:16.935Z,8.20
2023-01-10T20:50:46.276Z,7.47
2023-01-10T20:53:16.457Z,8.60
2023-01-10T20:55:56.410Z,9.87
2023-01-10T20:58:29.166Z,12.00
2023-01-10T21:00:58.860Z,11.73
2023-01-10T21:03:28.904Z,11.03
2023-01-10T21:05:59.842Z,9.60
2023-01-10T21:08:30.618Z,9.13
2023-01-10T21:11:01.915Z,9.30
2023-01-10T21:13:32.131Z,9.20
2023-01-10T21:16:01.982Z,8.90
2023-01-10T21:18:34.175Z,8.83
2023-01-10T21:21:03.915Z,9.33
2023-01-10T21:23:33.547Z,8.93
2023-01-10T21:26:06.460Z,8.83
2023-01-10T21:28:37.868Z,7.73
2023-01-10T21:31:07.680Z,6.97
2023-01-10T21:33:37.245Z,6.67
2023-01-10T21:36:08.079Z,7.40
2023-01-10T21:38:38.105Z,5.97
2023-01-10T21:41:13.193Z,5.97
2023-01-10T21:43:46.420Z,6.53
2023-01-10T21:46:15.613Z,6.87
2023-01-10T21:48:45.242Z,7.03
2023-01-10T21:51:15.072Z,6.37
2023-01-10T21:53:44.639Z,7.13
2023-01-10T21:56:15.904Z,7.33
2023-01-10T21:58:45.179Z,6.70
2023-01-10T22:01:14.587Z,6.90
2023-01-10T22:03:43.803Z,6.53
2023-01-10T22:06:12.745Z,7.20
2023-01-10T22:08:42.196Z,6.73
2023-01-10T22:11:11.731Z,8.17
2023-01-10T22:13:42.341Z,7.27
2023-01-10T22:16:11.869Z,8.27
2023-01-10T22:18:41.439Z,7.67
2023-01-10T22:21:10.533Z,8.43
2023-01-10T22:23:43.376Z,9.07
2023-01-10T22:26:14.388Z,7.33
2023-01-10T22:28:44.865Z,9.20
2023-01-10T22:31:13.874Z,8.93
2023-01-10T22:33:43.369Z,8.80
2023-01-10T22:36:16.871Z,9.20
2023-01-10T22:38:46.434Z,7.90
2023-01-10T22:41:17.176Z,11.10
2023-01-10T22:43:48.926Z,11.10
2023-01-10T22:46:19.169Z,12.37
2023-01-10T22:48:48.905Z,12.73
2023-01-10T22:51:19.489Z,11.57
2023-01-10T22:53:51.689Z,11.40
2023-01-10T22:56:21.038Z,13.00
2023-01-10T22:58:51.799Z,15.47
2023-01-10T23:01:23.088Z,15.63
2023-01-10T23:03:52.661Z,15.77
2023-01-10T23:06:22.631Z,15.60
2023-01-10T23:08:53.448Z,16.13
2023-01-10T23:11:23.716Z,14.27
2023-01-10T23:13:54.441Z,14.07
2023-01-10T23:16:29.012Z,14.50
2023-01-10T23:18:58.680Z,14.73
2023-01-10T23:21:29.039Z,15.10
2023-01-10T23:23:58.182Z,17.03
2023-01-10T23:26:27.396Z,15.70
2023-01-10T23:28:57.573Z,14.60
2023-01-10T23:31:29.585Z,13.77
2023-01-10T23:33:59.502Z,14.77
2023-01-10T23:36:28.403Z,14.70
2023-01-10T23:38:57.612Z,14.90
2023-01-10T23:41:26.716Z,13.90
2023-01-10T23:43:58.246Z,14.87
2023-01-10T23:46:27.197Z,13.70
2023-01-10T23:48:56.131Z,14.17
2023-01-10T23:51:25.622Z,14.23
2023-01-10T23:53:55.042Z,14.83
2023-01-10T23:56:24.339Z,14.33
2023-01-10T23:58:54.205Z,13.43
